createdAt,value
2017-10-12T00:02:05.160Z,29.60
2017-10-12T00:04:33.144Z,29.60
2017-10-12T00:07:01.208Z,29.60
2017-10-12T00:09:29.196Z,29.60
2017-10-12T00:11:57.678Z,29.50
2017-10-12T00:14:25.776Z,29.60
2017-10-12T00:16:55.118Z,29.60
2017-10-12T00:19:23.072Z,29.60
2017-10-12T00:21:51.962Z,29.60
2017-10-12T00:24:19.912Z,29.70
2017-10-12T00:26:49.052Z,29.60
2017-10-12T00:29:17.139Z,29.60
2017-10-12T00:31:45.632Z,29.60
2017-10-12T00:34:13.719Z,29.60
2017-10-12T00:36:41.836Z,29.60
2017-10-12T00:39:09.760Z,29.50
2017-10-12T00:41:37.756Z,29.40
2017-10-12T00:44:07.131Z,29.40
2017-10-12T00:46:35.789Z,29.30
2017-10-12T00:49:04.380Z,29.40
2017-10-12T00:51:32.471Z,29.30
2017-10-12T00:54:00.492Z,29.20
2017-10-12T00:56:28.648Z,29.20
2017-10-12T00:58:58.405Z,29.20
2017-10-12T01:01:27.116Z,29.20
2017-10-12T01:03:55.695Z,29.20
2017-10-12T01:06:23.879Z,29.20
2017-10-12T01:08:51.933Z,29.20
2017-10-12T01:11:19.980Z,29.20
2017-10-12T01:13:48.520Z,29.30
2017-10-12T01:16:16.547Z,29.20
2017-10-12T01:18:45.171Z,29.20
2017-10-12T01:21:13.890Z,29.20
2017-10-12T01:23:42.816Z,29.10
2017-10-12T01:26:11.148Z,29.10
2017-10-12T01:28:39.383Z,29.10
2017-10-12T01:31:08.144Z,29.10
2017-10-12T01:33:36.673Z,29.00
2017-10-12T01:36:05.368Z,29.00
2017-10-12T01:38:33.663Z,29.00
2017-10-12T01:41:02.892Z,28.90
2017-10-12T01:43:31.263Z,28.90
2017-10-12T01:46:00.947Z,28.90
2017-10-12T01:48:40.627Z,28.90
2017-10-12T01:51:09.251Z,28.90
2017-10-12T01:53:37.320Z,28.80
2017-10-12T01:56:05.572Z,28.80
2017-10-12T01:58:33.635Z,28.70
2017-10-12T02:01:02.304Z,28.80
2017-10-12T02:03:31.876Z,28.60
2017-10-12T02:06:00.720Z,28.60
2017-10-12T02:08:29.331Z,28.50
2017-10-12T02:10:58.397Z,28.60
2017-10-12T02:13:27.270Z,28.60
2017-10-12T02:15:56.060Z,28.60
2017-10-12T02:18:25.276Z,28.40
2017-10-12T02:20:54.032Z,28.50
2017-10-12T02:23:22.092Z,28.50
2017-10-12T02:25:50.379Z,28.50
2017-10-12T02:28:18.447Z,28.60
2017-10-12T02:30:46.468Z,28.60
2017-10-12T02:33:15.263Z,28.60
2017-10-12T02:35:43.739Z,28.70
2017-10-12T02:38:12.379Z,28.80
2017-10-12T02:40:40.587Z,28.80
2017-10-12T02:43:09.360Z,28.80
2017-10-12T02:45:37.944Z,28.80
2017-10-12T02:48:06.536Z,28.90
2017-10-12T02:50:35.637Z,29.00
2017-10-12T02:53:04.857Z,29.00
2017-10-12T02:55:33.055Z,28.90
2017-10-12T02:58:01.119Z,29.10
2017-10-12T03:00:29.190Z,29.10
2017-10-12T03:02:57.824Z,29.10
2017-10-12T03:05:26.348Z,29.20
2017-10-12T03:07:54.479Z,29.30
2017-10-12T03:10:23.188Z,29.40
2017-10-12T03:12:52.016Z,29.50
2017-10-12T03:15:20.292Z,29.50
2017-10-12T03:17:48.376Z,29.70
2017-10-12T03:20:17.269Z,29.80
2017-10-12T03:22:45.872Z,29.90
2017-10-12T03:25:14.104Z,30.00
2017-10-12T03:27:42.112Z,30.10
2017-10-12T03:30:10.146Z,30.20
2017-10-12T03:32:38.764Z,30.40
2017-10-12T03:35:07.328Z,30.60
2017-10-12T03:37:36.282Z,30.80
2017-10-12T03:40:05.148Z,30.90
2017-10-12T03:42:33.208Z,31.00
2017-10-12T03:45:01.275Z,31.20
2017-10-12T03:47:30.027Z,31.30
2017-10-12T03:49:58.792Z,31.60
2017-10-12T03:52:26.851Z,31.60
2017-10-12T03:54:55.367Z,31.70
2017-10-12T03:57:24.130Z,32.90
2017-10-12T03:59:52.172Z,32.90
2017-10-12T04:02:20.856Z,33.90
2017-10-12T04:04:49.371Z,34.10
2017-10-12T04:07:18.120Z,33.80
2017-10-12T04:09:46.768Z,33.30
2017-10-12T04:12:16.367Z,32.70
2017-10-12T04:14:44.412Z,32.70
2017-10-12T04:17:12.598Z,32.80
2017-10-12T04:19:41.077Z,32.90
2017-10-12T04:22:09.692Z,33.00
2017-10-12T04:24:38.637Z,33.20
2017-10-12T04:27:07.319Z,33.20
2017-10-12T04:29:35.319Z,33.30
2017-10-12T04:32:07.937Z,33.50
2017-10-12T04:34:36.940Z,33.50
2017-10-12T04:37:04.985Z,33.60
2017-10-12T04:39:34.502Z,33.80
2017-10-12T04:42:03.675Z,33.90
2017-10-12T04:44:31.756Z,33.90
2017-10-12T04:46:59.983Z,34.00
2017-10-12T04:49:28.404Z,34.10
2017-10-12T04:51:57.083Z,34.40
2017-10-12T04:54:26.095Z,34.20
2017-10-12T04:56:54.618Z,35.40
2017-10-12T04:59:22.764Z,36.60
2017-10-12T05:01:51.693Z,38.00
2017-10-12T05:04:20.463Z,38.10
2017-10-12T05:06:50.044Z,37.40
2017-10-12T05:09:18.870Z,37.40
2017-10-12T05:11:47.394Z,37.00
2017-10-12T05:14:15.480Z,36.90
2017-10-12T05:16:43.623Z,36.40
2017-10-12T05:19:12.295Z,36.60
2017-10-12T05:21:40.331Z,36.70
2017-10-12T05:24:09.191Z,36.80
2017-10-12T05:26:37.223Z,36.80
2017-10-12T05:29:05.287Z,36.60
2017-10-12T05:31:34.155Z,36.80
2017-10-12T05:34:02.136Z,36.70
2017-10-12T05:36:30.943Z,36.50
2017-10-12T05:38:59.100Z,36.50
2017-10-12T05:41:27.871Z,36.70
2017-10-12T05:43:55.844Z,36.70
2017-10-12T05:46:24.040Z,37.00
2017-10-12T05:48:52.976Z,37.20
2017-10-12T05:51:21.032Z,37.20
2017-10-12T05:53:49.251Z,36.80
2017-10-12T05:56:17.220Z,37.10
2017-10-12T05:58:45.248Z,37.40
2017-10-12T06:01:13.351Z,37.60
2017-10-12T06:03:41.413Z,37.80
2017-10-12T06:06:09.392Z,37.80
2017-10-12T06:08:37.599Z,38.00
2017-10-12T06:11:06.288Z,38.40
2017-10-12T06:13:34.883Z,39.20
2017-10-12T06:16:04.567Z,41.20
2017-10-12T06:18:32.536Z,41.20
2017-10-12T06:21:01.151Z,42.20
2017-10-12T06:23:30.279Z,42.20
2017-10-12T06:25:58.367Z,42.20
2017-10-12T06:28:26.920Z,41.90
2017-10-12T06:30:56.331Z,40.80
2017-10-12T06:33:24.404Z,40.70
2017-10-12T06:35:52.779Z,40.40
2017-10-12T06:38:22.636Z,40.20
2017-10-12T06:40:50.815Z,40.20
2017-10-12T06:43:19.440Z,40.20
2017-10-12T06:45:48.411Z,39.80
2017-10-12T06:48:16.569Z,39.80
2017-10-12T06:50:45.172Z,39.60
2017-10-12T06:53:14.116Z,39.60
2017-10-12T06:55:42.844Z,39.60
2017-10-12T06:58:11.406Z,39.60
2017-10-12T07:00:40.401Z,39.80
2017-10-12T07:03:08.471Z,39.70
2017-10-12T07:05:36.507Z,39.60
2017-10-12T07:08:05.463Z,39.60
2017-10-12T07:10:33.928Z,39.60
2017-10-12T07:13:02.476Z,39.70
2017-10-12T07:15:31.107Z,39.60
2017-10-12T07:17:59.143Z,39.60
2017-10-12T07:20:27.169Z,39.70
2017-10-12T07:22:56.435Z,39.70
2017-10-12T07:25:25.592Z,40.20
2017-10-12T07:27:54.903Z,40.80
2017-10-12T07:30:23.095Z,40.80
2017-10-12T07:32:51.085Z,42.10
2017-10-12T07:35:19.176Z,43.10
2017-10-12T07:37:48.019Z,43.70
2017-10-12T07:40:16.644Z,43.70
2017-10-12T07:42:44.875Z,42.60
2017-10-12T07:45:13.755Z,41.50
2017-10-12T07:47:42.579Z,41.20
2017-10-12T07:50:10.623Z,41.20
2017-10-12T07:52:39.508Z,40.70
2017-10-12T07:55:08.919Z,40.60
2017-10-12T07:57:38.231Z,40.50
2017-10-12T08:00:07.685Z,40.50
2017-10-12T08:02:35.707Z,40.50
2017-10-12T08:05:04.456Z,40.10
2017-10-12T08:07:32.599Z,40.00
2017-10-12T08:10:01.268Z,39.80
2017-10-12T08:12:30.193Z,39.70
2017-10-12T08:14:58.859Z,39.60
2017-10-12T08:17:26.901Z,39.60
2017-10-12T08:19:55.783Z,39.40
2017-10-12T08:22:24.707Z,39.50
2017-10-12T08:24:53.131Z,39.40
2017-10-12T08:27:21.636Z,39.30
2017-10-12T08:29:50.504Z,39.10
2017-10-12T08:32:19.264Z,39.10
2017-10-12T08:34:47.435Z,39.00
2017-10-12T08:37:15.530Z,38.70
2017-10-12T08:39:43.768Z,38.60
2017-10-12T08:42:13.072Z,38.40
2017-10-12T08:44:41.160Z,38.40
2017-10-12T08:47:09.275Z,38.30
2017-10-12T08:49:37.368Z,38.30
2017-10-12T08:52:06.352Z,38.50
2017-10-12T08:54:34.831Z,38.50
2017-10-12T08:57:02.919Z,38.50
2017-10-12T08:59:32.720Z,38.50
2017-10-12T09:02:01.349Z,38.50
2017-10-12T09:04:29.536Z,38.30
2017-10-12T09:06:57.714Z,38.40
2017-10-12T09:09:25.758Z,38.30
2017-10-12T09:11:55.062Z,38.10
2017-10-12T09:14:23.756Z,38.10
2017-10-12T09:16:51.863Z,38.00
2017-10-12T09:19:19.932Z,38.10
2017-10-12T09:21:48.143Z,38.00
2017-10-12T09:24:16.148Z,38.00
2017-10-12T09:26:44.199Z,37.90
2017-10-12T09:29:13.113Z,38.00
2017-10-12T09:31:41.351Z,37.90
2017-10-12T09:34:09.535Z,37.90
2017-10-12T09:36:37.911Z,37.80
2017-10-12T09:39:06.125Z,37.80
2017-10-12T09:41:34.296Z,37.90
2017-10-12T09:44:02.755Z,37.80
2017-10-12T09:46:33.443Z,37.70
2017-10-12T09:49:01.944Z,37.70
2017-10-12T09:51:30.237Z,37.70
2017-10-12T09:53:58.276Z,37.70
2017-10-12T09:56:26.939Z,37.50
2017-10-12T09:58:55.939Z,37.50
2017-10-12T10:01:24.731Z,37.30
2017-10-12T10:03:53.623Z,37.50
2017-10-12T10:06:21.891Z,37.30
2017-10-12T10:08:50.004Z,37.20
2017-10-12T10:11:18.583Z,37.20
2017-10-12T10:13:46.737Z,37.20
2017-10-12T10:16:15.303Z,37.20
2017-10-12T10:18:43.783Z,37.20
2017-10-12T10:21:12.643Z,37.00
2017-10-12T10:23:40.648Z,37.00
2017-10-12T10:26:08.619Z,37.00
2017-10-12T10:28:36.906Z,37.10
2017-10-12T10:31:04.871Z,37.10
2017-10-12T10:33:33.347Z,37.10
2017-10-12T10:36:02.184Z,37.20
2017-10-12T10:38:30.283Z,37.20
2017-10-12T10:40:58.366Z,37.00
2017-10-12T10:43:27.835Z,37.00
2017-10-12T10:45:55.876Z,37.00
2017-10-12T10:48:24.752Z,37.00
2017-10-12T10:50:54.203Z,36.90
2017-10-12T10:53:22.356Z,36.90
2017-10-12T10:55:50.420Z,37.00
2017-10-12T10:58:19.360Z,37.00
2017-10-12T11:00:48.099Z,36.80
2017-10-12T11:03:16.302Z,36.90
2017-10-12T11:05:44.991Z,37.00
2017-10-12T11:08:13.024Z,37.70
2017-10-12T11:10:41.017Z,37.80
2017-10-12T11:13:09.168Z,37.60
2017-10-12T11:15:37.740Z,37.40
2017-10-12T11:18:06.456Z,37.20
2017-10-12T11:20:35.262Z,37.20
2017-10-12T11:23:03.277Z,37.30
2017-10-12T11:25:32.204Z,37.20
2017-10-12T11:28:01.240Z,37.10
2017-10-12T11:30:29.905Z,37.00
2017-10-12T11:32:58.459Z,37.00
2017-10-12T11:35:28.076Z,36.80
2017-10-12T11:37:56.116Z,36.80
2017-10-12T11:40:24.099Z,36.80
2017-10-12T11:42:52.991Z,36.70
2017-10-12T11:45:22.416Z,36.60
2017-10-12T11:47:51.279Z,36.50
2017-10-12T11:50:20.208Z,36.40
2017-10-12T11:52:48.213Z,36.40
2017-10-12T11:55:16.319Z,36.50
2017-10-12T11:57:45.168Z,36.40
2017-10-12T12:00:13.835Z,36.40
2017-10-12T12:02:41.897Z,36.20
2017-10-12T12:05:10.008Z,36.20
2017-10-12T12:07:38.047Z,36.30
2017-10-12T12:10:06.087Z,36.20
2017-10-12T12:12:35.083Z,36.10
2017-10-12T12:15:03.883Z,36.10
2017-10-12T12:17:32.687Z,36.10
2017-10-12T12:20:00.899Z,36.10
2017-10-12T12:22:28.920Z,36.10
2017-10-12T12:24:57.669Z,36.00
2017-10-12T12:27:25.952Z,35.90
2017-10-12T12:29:54.490Z,36.00
2017-10-12T12:32:23.012Z,35.90
2017-10-12T12:34:51.855Z,35.90
2017-10-12T12:37:20.524Z,35.80
2017-10-12T12:39:49.320Z,35.70
2017-10-12T12:42:18.271Z,35.70
2017-10-12T12:44:46.328Z,35.60
2017-10-12T12:47:14.395Z,35.60
2017-10-12T12:49:42.560Z,35.50
2017-10-12T12:52:10.695Z,35.50
2017-10-12T12:54:39.563Z,35.40
2017-10-12T12:57:07.664Z,35.40
2017-10-12T12:59:36.531Z,35.50
2017-10-12T13:02:04.565Z,35.40
2017-10-12T13:04:33.636Z,35.40
2017-10-12T13:07:02.455Z,35.50
2017-10-12T13:09:31.019Z,35.40
2017-10-12T13:11:59.307Z,35.30
2017-10-12T13:14:27.343Z,35.30
2017-10-12T13:16:55.872Z,35.20
2017-10-12T13:19:24.028Z,35.30
2017-10-12T13:21:52.472Z,35.20
2017-10-12T13:24:21.012Z,35.20
2017-10-12T13:26:49.132Z,35.10
2017-10-12T13:29:17.151Z,35.00
2017-10-12T13:31:45.683Z,34.90
2017-10-12T13:34:14.628Z,34.80
2017-10-12T13:36:42.632Z,34.80
2017-10-12T13:39:11.238Z,34.80
2017-10-12T13:41:40.044Z,34.70
2017-10-12T13:44:08.811Z,34.50
2017-10-12T13:46:37.678Z,34.50
2017-10-12T13:49:06.483Z,34.50
2017-10-12T13:51:35.084Z,34.40
2017-10-12T13:54:04.319Z,34.30
2017-10-12T13:56:32.498Z,34.30
2017-10-12T13:59:00.591Z,34.20
2017-10-12T14:01:28.686Z,34.20
2017-10-12T14:03:57.356Z,34.30
2017-10-12T14:06:25.462Z,34.20
2017-10-12T14:08:53.520Z,34.20
2017-10-12T14:11:21.648Z,34.20
2017-10-12T14:13:49.810Z,34.10
2017-10-12T14:16:19.095Z,34.00
2017-10-12T14:18:49.463Z,34.00
2017-10-12T14:21:18.245Z,34.00
2017-10-12T14:23:47.168Z,34.00
2017-10-12T14:26:15.330Z,33.90
2017-10-12T14:28:43.505Z,33.90
2017-10-12T14:31:11.603Z,33.80
2017-10-12T14:33:40.412Z,33.80
2017-10-12T14:36:09.629Z,33.80
2017-10-12T14:38:38.460Z,33.80
2017-10-12T14:41:07.382Z,33.80
2017-10-12T14:43:35.538Z,33.70
2017-10-12T14:46:03.536Z,33.70
2017-10-12T14:48:32.203Z,33.70
2017-10-12T14:51:00.808Z,33.60
2017-10-12T14:53:29.440Z,33.60
2017-10-12T14:55:57.607Z,33.60
2017-10-12T14:58:26.415Z,33.60
2017-10-12T15:00:54.437Z,33.50
2017-10-12T15:03:23.221Z,33.50
2017-10-12T15:05:51.968Z,33.50
2017-10-12T15:08:20.812Z,33.50
2017-10-12T15:10:49.456Z,33.50
2017-10-12T15:13:18.013Z,33.50
2017-10-12T15:15:46.264Z,33.40
2017-10-12T15:18:15.143Z,33.40
2017-10-12T15:20:43.661Z,33.40
2017-10-12T15:23:11.862Z,33.40
2017-10-12T15:25:40.766Z,33.40
2017-10-12T15:28:08.776Z,33.40
2017-10-12T15:30:36.827Z,33.30
2017-10-12T15:33:04.952Z,33.30
2017-10-12T15:35:33.777Z,33.30
2017-10-12T15:38:02.322Z,33.30
2017-10-12T15:40:32.004Z,33.30
2017-10-12T15:42:59.996Z,33.20
2017-10-12T15:45:28.767Z,33.20
2017-10-12T15:47:57.061Z,33.20
2017-10-12T15:50:26.324Z,33.20
2017-10-12T15:52:55.203Z,33.20
2017-10-12T15:55:23.419Z,33.20
2017-10-12T15:57:52.540Z,33.20
2017-10-12T16:00:20.603Z,33.20
2017-10-12T16:02:49.515Z,33.20
2017-10-12T16:05:17.547Z,33.20
2017-10-12T16:07:46.189Z,33.10
2017-10-12T16:10:14.740Z,33.10
2017-10-12T16:12:43.395Z,33.10
2017-10-12T16:15:12.141Z,33.10
2017-10-12T16:17:40.601Z,33.10
2017-10-12T16:20:08.720Z,33.10
2017-10-12T16:23:05.898Z,33.10
2017-10-12T16:25:06.503Z,33.10
2017-10-12T16:27:34.528Z,33.10
2017-10-12T16:30:03.327Z,33.10
2017-10-12T16:32:31.464Z,33.10
2017-10-12T16:34:59.559Z,33.00
2017-10-12T16:37:28.991Z,33.00
2017-10-12T16:39:58.068Z,33.00
2017-10-12T16:42:27.475Z,32.90
2017-10-12T16:44:56.079Z,32.90
2017-10-12T16:47:24.252Z,32.90
2017-10-12T16:49:52.267Z,32.90
2017-10-12T16:52:20.832Z,32.80
2017-10-12T16:54:49.519Z,32.80
2017-10-12T16:57:18.184Z,32.80
2017-10-12T16:59:46.807Z,32.80
2017-10-12T17:02:15.147Z,32.80
2017-10-12T17:04:43.207Z,32.80
2017-10-12T17:07:11.743Z,32.80
2017-10-12T17:09:40.456Z,32.80
2017-10-12T17:12:09.824Z,32.70
2017-10-12T17:14:38.683Z,32.70
2017-10-12T17:17:06.920Z,32.70
2017-10-12T17:19:35.036Z,32.70
2017-10-12T17:22:03.127Z,32.70
2017-10-12T17:24:31.880Z,32.70
2017-10-12T17:27:01.039Z,32.70
2017-10-12T17:29:29.649Z,32.60
2017-10-12T17:31:58.571Z,32.60
2017-10-12T17:34:26.648Z,32.60
2017-10-12T17:36:55.300Z,32.60
2017-10-12T17:39:24.569Z,32.60
2017-10-12T17:41:53.208Z,32.60
2017-10-12T17:44:21.688Z,32.60
2017-10-12T17:46:49.880Z,32.60
2017-10-12T17:49:18.119Z,32.60
2017-10-12T17:51:47.066Z,32.60
2017-10-12T17:54:45.516Z,32.60
2017-10-12T17:56:45.086Z,32.60
2017-10-12T17:59:13.920Z,32.60
2017-10-12T18:01:42.617Z,32.60
2017-10-12T18:06:38.878Z,32.50
2017-10-12T18:09:07.464Z,32.50
2017-10-12T18:11:36.097Z,32.50
2017-10-12T18:14:05.296Z,32.50
2017-10-12T18:16:34.019Z,32.50
2017-10-12T18:19:02.047Z,32.50
2017-10-12T18:21:30.383Z,32.50
2017-10-12T18:23:59.324Z,32.50
2017-10-12T18:26:27.401Z,32.50
2017-10-12T18:28:56.564Z,32.50
2017-10-12T18:31:24.742Z,32.50
2017-10-12T18:33:52.761Z,32.50
2017-10-12T18:36:21.476Z,32.50
2017-10-12T18:38:49.648Z,32.50
2017-10-12T18:41:18.280Z,32.50
2017-10-12T18:43:46.313Z,32.50
2017-10-12T18:46:15.082Z,32.50
2017-10-12T18:48:43.151Z,32.50
2017-10-12T18:51:12.001Z,32.50
2017-10-12T18:53:40.631Z,32.40
2017-10-12T18:56:09.276Z,32.50
2017-10-12T18:58:37.938Z,32.50
2017-10-12T19:01:06.621Z,32.40
2017-10-12T19:03:34.667Z,32.40
2017-10-12T19:06:02.767Z,32.40
2017-10-12T19:08:31.436Z,32.40
2017-10-12T19:10:59.526Z,32.40
2017-10-12T19:13:28.144Z,32.40
2017-10-12T19:15:56.332Z,32.40
2017-10-12T19:18:25.731Z,32.40
2017-10-12T19:20:53.872Z,32.40
2017-10-12T19:23:22.227Z,32.40
2017-10-12T19:25:50.244Z,32.40
2017-10-12T19:30:48.338Z,32.30
2017-10-12T19:33:17.079Z,32.00
2017-10-12T19:35:45.137Z,31.90
2017-10-12T19:38:14.024Z,31.80
2017-10-12T19:40:42.057Z,31.80
2017-10-12T19:43:10.444Z,31.80
2017-10-12T19:45:39.219Z,31.80
2017-10-12T19:48:07.887Z,31.80
2017-10-12T19:50:35.935Z,31.60
2017-10-12T19:53:04.091Z,31.60
2017-10-12T19:55:33.532Z,31.50
2017-10-12T19:58:02.324Z,31.50
2017-10-12T20:00:31.020Z,31.50
2017-10-12T20:02:59.691Z,31.40
2017-10-12T20:05:27.755Z,31.50
2017-10-12T20:07:55.876Z,31.40
2017-10-12T20:10:24.537Z,31.40
2017-10-12T20:12:52.506Z,31.40
2017-10-12T20:15:21.485Z,31.30
2017-10-12T20:17:50.283Z,31.30
2017-10-12T20:20:18.319Z,31.30
2017-10-12T20:22:47.176Z,31.30
2017-10-12T20:25:15.347Z,31.30
2017-10-12T20:27:43.363Z,31.30
2017-10-12T20:30:13.775Z,31.20
2017-10-12T20:32:41.776Z,31.20
2017-10-12T20:35:09.800Z,31.10
2017-10-12T20:37:37.928Z,31.10
2017-10-12T20:40:05.919Z,31.10
2017-10-12T20:42:34.659Z,31.00
2017-10-12T20:45:04.080Z,31.00
2017-10-12T20:47:33.232Z,31.10
2017-10-12T20:50:01.833Z,31.10
2017-10-12T20:52:30.821Z,31.10
2017-10-12T20:55:13.720Z,31.00
2017-10-12T20:57:27.768Z,31.00
2017-10-12T20:59:55.959Z,31.00
2017-10-12T21:04:52.703Z,30.90
2017-10-12T21:07:20.888Z,30.90
2017-10-12T21:09:48.983Z,30.80
2017-10-12T21:12:17.032Z,30.90
2017-10-12T21:14:45.831Z,30.90
2017-10-12T21:17:14.360Z,30.80
2017-10-12T21:19:42.680Z,30.80
2017-10-12T21:22:10.760Z,30.80
2017-10-12T21:24:38.823Z,30.80
2017-10-12T21:27:07.003Z,30.70
2017-10-12T21:29:35.788Z,30.80
2017-10-12T21:32:03.764Z,30.70
2017-10-12T21:34:32.192Z,30.70
2017-10-12T21:37:01.052Z,30.70
2017-10-12T21:39:29.135Z,30.70
2017-10-12T21:41:57.232Z,30.70
2017-10-12T21:44:25.411Z,30.70
2017-10-12T21:46:53.852Z,30.60
2017-10-12T21:49:22.599Z,30.50
2017-10-12T21:51:50.807Z,30.50
2017-10-12T21:54:18.896Z,30.50
2017-10-12T21:56:46.907Z,30.40
2017-10-12T21:59:15.652Z,30.50
2017-10-12T22:01:43.664Z,30.50
2017-10-12T22:04:13.093Z,30.30
2017-10-12T22:06:41.268Z,30.30
2017-10-12T22:09:09.323Z,30.40
2017-10-12T22:11:37.387Z,30.40
2017-10-12T22:14:06.855Z,30.30
2017-10-12T22:16:35.548Z,30.20
2017-10-12T22:19:03.968Z,30.20
2017-10-12T22:21:32.687Z,30.20
2017-10-12T22:24:00.711Z,30.20
2017-10-12T22:26:29.455Z,30.20
2017-10-12T22:28:57.755Z,30.20
2017-10-12T22:31:26.378Z,30.20
2017-10-12T22:33:54.415Z,30.20
2017-10-12T22:36:23.135Z,30.30
2017-10-12T22:38:51.228Z,30.30
2017-10-12T22:41:19.500Z,30.20
2017-10-12T22:43:47.591Z,30.10
2017-10-12T22:46:18.087Z,30.10
2017-10-12T22:48:46.120Z,30.00
2017-10-12T22:51:16.352Z,29.90
2017-10-12T22:53:44.976Z,29.90
2017-10-12T22:56:12.988Z,29.90
2017-10-12T22:58:41.077Z,29.90
2017-10-12T23:01:09.171Z,29.90
2017-10-12T23:03:38.548Z,30.00
2017-10-12T23:06:07.347Z,30.00
2017-10-12T23:08:36.122Z,30.00
2017-10-12T23:11:04.132Z,30.00
2017-10-12T23:13:33.075Z,30.00
2017-10-12T23:16:01.740Z,30.00
2017-10-12T23:18:30.545Z,29.90
2017-10-12T23:20:59.175Z,29.90
2017-10-12T23:23:28.723Z,29.80
2017-10-12T23:25:56.747Z,29.80
2017-10-12T23:28:24.927Z,29.80
2017-10-12T23:30:53.903Z,29.80
2017-10-12T23:33:22.468Z,29.80
2017-10-12T23:35:50.627Z,29.80
2017-10-12T23:38:19.070Z,29.80
2017-10-12T23:40:47.827Z,29.60
2017-10-12T23:43:15.945Z,29.60
2017-10-12T23:45:45.423Z,29.60
2017-10-12T23:48:14.264Z,29.60
2017-10-12T23:50:43.060Z,29.60
2017-10-12T23:53:11.660Z,29.60
2017-10-12T23:55:39.656Z,29.60
2017-10-12T23:58:07.803Z,29.50
